createdAt,value
2022-09-20T00:00:00.322Z,5.18
2022-09-20T00:00:22.045Z,4.70
2022-09-20T00:00:45.379Z,4.82
2022-09-20T00:01:11.384Z,5.40
2022-09-20T00:01:34.098Z,7.35
2022-09-20T00:01:56.605Z,6.15
2022-09-20T00:02:18.520Z,4.85
2022-09-20T00:02:40.475Z,5.78
2022-09-20T00:03:02.454Z,5.55
2022-09-20T00:03:24.136Z,4.88
2022-09-20T00:03:47.855Z,4.30
2022-09-20T00:04:09.844Z,5.18
2022-09-20T00:04:31.724Z,6.50
2022-09-20T00:04:53.538Z,5.80
2022-09-20T00:05:15.560Z,4.70
2022-09-20T00:05:38.819Z,5.50
2022-09-20T00:06:02.113Z,4.47
2022-09-20T00:06:27.477Z,4.60
2022-09-20T00:06:49.673Z,4.43
2022-09-20T00:07:11.433Z,4.78
2022-09-20T00:07:33.440Z,4.63
2022-09-20T00:07:55.169Z,4.80
2022-09-20T00:08:17.109Z,4.30
2022-09-20T00:08:39.607Z,4.40
2022-09-20T00:09:03.092Z,5.72
2022-09-20T00:09:25.081Z,5.65
2022-09-20T00:09:47.572Z,5.05
2022-09-20T00:10:09.975Z,5.50
2022-09-20T00:10:36.717Z,5.68
2022-09-20T00:11:03.457Z,4.72
2022-09-20T00:11:30.746Z,4.65
2022-09-20T00:11:52.927Z,4.95
2022-09-20T00:12:14.791Z,4.68
2022-09-20T00:12:36.567Z,4.75
2022-09-20T00:12:58.543Z,4.50
2022-09-20T00:13:20.290Z,4.65
2022-09-20T00:13:44.424Z,4.80
2022-09-20T00:14:08.996Z,4.18
2022-09-20T00:14:31.153Z,4.00
2022-09-20T00:14:52.850Z,4.13
2022-09-20T00:15:15.908Z,5.25
2022-09-20T00:15:45.405Z,4.40
2022-09-20T00:16:12.883Z,6.07
2022-09-20T00:16:39.021Z,5.40
2022-09-20T00:17:01.023Z,5.03
2022-09-20T00:17:22.901Z,4.97
2022-09-20T00:17:44.848Z,4.50
2022-09-20T00:18:06.881Z,4.15
2022-09-20T00:18:31.133Z,4.75
2022-09-20T00:18:54.958Z,5.10
2022-09-20T00:19:21.815Z,5.05
2022-09-20T00:19:43.808Z,4.55
2022-09-20T00:20:06.198Z,5.00
2022-09-20T00:20:27.950Z,4.30
2022-09-20T00:20:50.670Z,4.07
2022-09-20T00:21:17.080Z,4.22
2022-09-20T00:21:39.108Z,4.68
2022-09-20T00:22:00.848Z,6.82
2022-09-20T00:22:22.588Z,5.93
2022-09-20T00:22:44.559Z,4.90
2022-09-20T00:23:06.326Z,4.85
2022-09-20T00:23:29.291Z,6.20
2022-09-20T00:23:52.627Z,6.05
2022-09-20T00:24:14.456Z,5.78
2022-09-20T00:24:36.743Z,5.22
2022-09-20T00:24:58.423Z,5.20
2022-09-20T00:25:20.639Z,4.15
2022-09-20T00:25:42.581Z,4.38
2022-09-20T00:26:05.293Z,4.82
2022-09-20T00:26:28.374Z,5.38
2022-09-20T00:26:50.130Z,6.18
2022-09-20T00:27:11.883Z,5.05
2022-09-20T00:27:33.721Z,5.03
2022-09-20T00:27:55.832Z,5.25
2022-09-20T00:28:17.528Z,5.07
2022-09-20T00:28:41.222Z,6.03
2022-09-20T00:29:03.849Z,5.13
2022-09-20T00:29:27.369Z,4.75
2022-09-20T00:29:49.087Z,4.70
2022-09-20T00:30:11.393Z,7.10
2022-09-20T00:30:33.875Z,5.22
2022-09-20T00:30:57.055Z,4.60
2022-09-20T00:31:19.813Z,4.10
2022-09-20T00:31:43.206Z,5.88
2022-09-20T00:32:05.165Z,5.18
2022-09-20T00:32:27.023Z,4.47
2022-09-20T00:32:48.786Z,4.88
2022-09-20T00:33:10.542Z,4.75
2022-09-20T00:33:50.508Z,4.60
2022-09-20T00:34:31.356Z,4.18
2022-09-20T00:35:08.548Z,5.00
2022-09-20T00:35:31.175Z,4.70
2022-09-20T00:35:53.017Z,5.18
2022-09-20T00:36:16.718Z,6.13
2022-09-20T00:36:38.447Z,4.90
2022-09-20T00:37:00.196Z,6.10
2022-09-20T00:37:22.296Z,7.05
2022-09-20T00:37:44.349Z,6.00
2022-09-20T00:38:06.193Z,5.95
2022-09-20T00:38:28.168Z,5.45
2022-09-20T00:38:49.922Z,6.00
2022-09-20T00:39:17.178Z,4.88
2022-09-20T00:39:38.902Z,5.00
2022-09-20T00:40:01.883Z,4.95
2022-09-20T00:40:27.193Z,5.32
2022-09-20T00:40:49.005Z,6.78
2022-09-20T00:41:11.917Z,5.70
2022-09-20T00:41:34.210Z,5.03
2022-09-20T00:41:56.234Z,7.30
2022-09-20T00:42:18.213Z,5.20
2022-09-20T00:42:40.779Z,5.03
2022-09-20T00:43:02.507Z,5.63
2022-09-20T00:43:42.584Z,6.50
2022-09-20T00:44:44.176Z,5.90
2022-09-20T00:45:21.061Z,6.78
2022-09-20T00:45:50.985Z,6.07
2022-09-20T00:46:37.989Z,5.68
2022-09-20T00:47:01.082Z,5.57
2022-09-20T00:47:32.183Z,5.93
2022-09-20T00:48:13.022Z,6.40
2022-09-20T00:48:34.783Z,5.43
2022-09-20T00:49:03.514Z,4.80
2022-09-20T00:49:28.788Z,5.10
2022-09-20T00:49:56.425Z,5.22
2022-09-20T00:50:35.867Z,5.30
2022-09-20T00:51:10.857Z,5.40
2022-09-20T00:51:37.344Z,5.40
2022-09-20T00:52:02.406Z,5.47
2022-09-20T00:52:24.779Z,5.60
2022-09-20T00:52:49.855Z,4.95
2022-09-20T00:53:18.221Z,5.07
2022-09-20T00:53:44.401Z,5.65
2022-09-20T00:54:08.781Z,5.72
2022-09-20T00:54:31.615Z,6.07
2022-09-20T00:54:54.473Z,7.53
2022-09-20T00:55:17.040Z,6.25
2022-09-20T00:55:47.516Z,6.20
2022-09-20T00:56:23.405Z,6.32
2022-09-20T00:56:45.381Z,6.38
2022-09-20T00:57:07.925Z,6.13
2022-09-20T00:57:35.470Z,6.15
2022-09-20T00:57:58.495Z,5.88
2022-09-20T00:58:24.772Z,6.72
2022-09-20T00:58:54.821Z,6.72
2022-09-20T00:59:18.146Z,6.20
2022-09-20T00:59:44.636Z,5.80
2022-09-20T01:00:11.672Z,5.80
2022-09-20T01:00:33.529Z,5.47
2022-09-20T01:00:57.839Z,6.05
2022-09-20T01:01:19.820Z,5.43
2022-09-20T01:01:44.019Z,5.90
2022-09-20T01:02:12.656Z,6.18
2022-09-20T01:02:37.962Z,5.68
2022-09-20T01:03:04.904Z,6.22
2022-09-20T01:03:32.046Z,6.65
2022-09-20T01:03:54.581Z,7.65
2022-09-20T01:04:18.767Z,7.82
2022-09-20T01:04:42.889Z,6.43
2022-09-20T01:05:07.731Z,5.80
2022-09-20T01:05:29.664Z,5.70
2022-09-20T01:05:53.172Z,5.85
2022-09-20T01:06:16.975Z,6.80
2022-09-20T01:06:39.269Z,6.93
2022-09-20T01:07:03.120Z,6.88
2022-09-20T01:07:26.118Z,6.13
2022-09-20T01:07:50.374Z,6.28
2022-09-20T01:08:12.707Z,6.30
2022-09-20T01:08:36.407Z,5.88
2022-09-20T01:09:02.477Z,5.68
2022-09-20T01:09:24.329Z,6.15
2022-09-20T01:09:46.057Z,5.07
2022-09-20T01:10:08.090Z,5.95
2022-09-20T01:10:30.432Z,7.95
2022-09-20T01:10:52.981Z,8.60
2022-09-20T01:11:14.755Z,7.20
2022-09-20T01:11:37.720Z,6.28
2022-09-20T01:12:03.893Z,6.35
2022-09-20T01:12:30.301Z,6.30
2022-09-20T01:12:53.657Z,8.07
2022-09-20T01:13:15.370Z,7.68
2022-09-20T01:13:37.205Z,5.75
2022-09-20T01:13:58.954Z,5.20
2022-09-20T01:14:22.794Z,6.25
2022-09-20T01:14:46.973Z,6.45
2022-09-20T01:15:10.322Z,5.85
2022-09-20T01:15:34.679Z,6.03
2022-09-20T01:16:00.668Z,5.70
2022-09-20T01:16:24.804Z,5.93
2022-09-20T01:16:46.727Z,6.00
2022-09-20T01:17:09.000Z,6.05
2022-09-20T01:17:34.858Z,5.90
2022-09-20T01:17:59.249Z,8.23
2022-09-20T01:18:23.552Z,6.82
2022-09-20T01:18:48.290Z,7.05
2022-09-20T01:19:20.232Z,5.60
2022-09-20T01:20:06.721Z,7.45
2022-09-20T01:20:32.124Z,6.82
2022-09-20T01:20:55.752Z,6.65
2022-09-20T01:21:20.725Z,7.15
2022-09-20T01:21:42.595Z,6.00
2022-09-20T01:22:14.999Z,5.75
2022-09-20T01:23:00.651Z,6.35
2022-09-20T01:23:46.051Z,5.43
2022-09-20T01:24:24.321Z,7.45
2022-09-20T01:25:36.135Z,5.70
2022-09-20T01:26:18.675Z,5.88
2022-09-20T01:27:08.924Z,6.35
2022-09-20T01:27:47.081Z,6.13
2022-09-20T01:28:09.120Z,7.82
2022-09-20T01:28:31.463Z,7.75
2022-09-20T01:29:09.190Z,6.43
2022-09-20T01:29:40.643Z,6.93
2022-09-20T01:30:22.123Z,6.55
2022-09-20T01:31:04.848Z,6.28
2022-09-20T01:31:31.717Z,6.80
2022-09-20T01:31:56.850Z,6.05
2022-09-20T01:32:22.510Z,6.07
2022-09-20T01:32:55.848Z,6.15
2022-09-20T01:33:38.801Z,6.38
2022-09-20T01:34:20.489Z,6.68
2022-09-20T01:34:48.333Z,8.00
2022-09-20T01:35:11.597Z,5.75
2022-09-20T01:35:35.607Z,6.50
2022-09-20T01:36:02.022Z,6.40
2022-09-20T01:36:42.065Z,6.15
2022-09-20T01:37:19.289Z,5.50
2022-09-20T01:37:49.766Z,5.55
2022-09-20T01:38:34.690Z,5.95
2022-09-20T01:38:59.089Z,7.28
2022-09-20T01:39:50.366Z,5.97
2022-09-20T01:40:34.214Z,7.18
2022-09-20T01:40:58.804Z,5.78
2022-09-20T01:41:44.782Z,6.20
2022-09-20T01:42:09.873Z,6.28
2022-09-20T01:42:36.977Z,6.32
2022-09-20T01:43:05.797Z,7.22
2022-09-20T01:43:50.493Z,6.20
2022-09-20T01:44:56.983Z,6.05
2022-09-20T01:45:24.338Z,5.72
2022-09-20T01:45:49.709Z,5.85
2022-09-20T01:46:22.546Z,6.30
2022-09-20T01:46:45.818Z,6.45
2022-09-20T01:47:31.172Z,6.40
2022-09-20T01:48:19.021Z,6.28
2022-09-20T01:48:42.558Z,6.45
2022-09-20T01:49:28.461Z,6.25
2022-09-20T01:49:57.444Z,7.22
2022-09-20T01:50:34.142Z,6.95
2022-09-20T01:51:10.866Z,6.15
2022-09-20T01:51:41.573Z,6.13
2022-09-20T01:52:26.573Z,5.50
2022-09-20T01:53:01.983Z,6.47
2022-09-20T01:54:04.955Z,6.72
2022-09-20T01:54:52.215Z,6.82
2022-09-20T01:56:04.300Z,5.93
2022-09-20T01:56:59.674Z,5.88
2022-09-20T01:57:35.909Z,5.43
2022-09-20T01:58:03.265Z,6.20
2022-09-20T01:59:01.917Z,5.95
2022-09-20T01:59:50.399Z,5.97
2022-09-20T02:00:20.423Z,6.05
2022-09-20T02:01:26.715Z,6.13
2022-09-20T02:01:54.541Z,5.65
2022-09-20T02:02:25.367Z,5.30
2022-09-20T02:02:52.710Z,6.10
2022-09-20T02:03:42.099Z,5.70
2022-09-20T02:04:24.984Z,5.97
2022-09-20T02:04:52.778Z,6.75
2022-09-20T02:05:24.358Z,6.10
2022-09-20T02:06:03.753Z,5.18
2022-09-20T02:06:57.107Z,5.82
2022-09-20T02:07:45.865Z,5.65
2022-09-20T02:08:25.989Z,6.15
2022-09-20T02:09:03.895Z,7.05
2022-09-20T02:09:58.385Z,5.93
2022-09-20T02:10:38.393Z,5.50
2022-09-20T02:11:06.310Z,5.50
2022-09-20T02:11:51.163Z,6.00
2022-09-20T02:12:31.593Z,5.13
2022-09-20T02:13:23.815Z,5.63
2022-09-20T02:14:02.811Z,5.88
2022-09-20T02:14:48.226Z,5.80
2022-09-20T02:15:41.873Z,7.45
2022-09-20T02:16:22.080Z,5.90
2022-09-20T02:16:46.417Z,5.80
2022-09-20T02:17:38.713Z,5.43
2022-09-20T02:18:17.318Z,5.97
2022-09-20T02:19:25.567Z,5.32
2022-09-20T02:20:01.458Z,6.85
2022-09-20T02:20:56.646Z,6.47
2022-09-20T02:21:35.930Z,6.97
2022-09-20T02:22:14.359Z,7.45
2022-09-20T02:22:47.764Z,6.43
2022-09-20T02:23:22.322Z,6.50
2022-09-20T02:24:01.698Z,7.68
2022-09-20T02:24:41.202Z,6.68
2022-09-20T02:25:21.447Z,6.68
2022-09-20T02:26:05.584Z,7.80
2022-09-20T02:26:32.498Z,6.85
2022-09-20T02:27:13.575Z,7.63
2022-09-20T02:27:40.642Z,7.82
2022-09-20T02:28:30.879Z,7.30
2022-09-20T02:29:20.190Z,7.82
2022-09-20T02:29:59.766Z,7.38
2022-09-20T02:30:29.942Z,8.93
2022-09-20T02:30:54.307Z,7.55
2022-09-20T02:31:28.030Z,7.93
2022-09-20T02:32:00.245Z,8.48
2022-09-20T02:32:24.269Z,8.25
2022-09-20T02:33:06.980Z,8.35
2022-09-20T02:33:58.693Z,8.13
2022-09-20T02:34:38.162Z,8.15
2022-09-20T02:35:26.926Z,8.95
2022-09-20T02:35:57.594Z,10.00
2022-09-20T02:36:29.365Z,8.70
2022-09-20T02:36:59.537Z,7.78
2022-09-20T02:37:39.017Z,8.15
2022-09-20T02:38:23.774Z,10.63
2022-09-20T02:39:04.025Z,9.20
2022-09-20T02:39:41.661Z,10.48
2022-09-20T02:40:23.471Z,9.07
2022-09-20T02:41:15.279Z,9.25
2022-09-20T02:41:56.250Z,9.45
2022-09-20T02:42:23.782Z,11.07
2022-09-20T02:43:08.138Z,10.93
2022-09-20T02:43:49.182Z,9.25
2022-09-20T02:44:54.766Z,8.98
2022-09-20T02:45:28.660Z,12.13
2022-09-20T02:46:12.766Z,11.90
2022-09-20T02:46:54.860Z,11.00
2022-09-20T02:47:42.593Z,11.98
2022-09-20T02:48:06.007Z,12.52
2022-09-20T02:48:42.543Z,12.10
2022-09-20T02:49:22.398Z,10.65
2022-09-20T02:50:21.347Z,11.30
2022-09-20T02:51:02.236Z,11.45
2022-09-20T02:51:34.839Z,11.13
2022-09-20T02:52:00.632Z,11.32
2022-09-20T02:52:46.754Z,11.00
2022-09-20T02:53:08.492Z,11.45
2022-09-20T02:53:45.170Z,11.82
2022-09-20T02:54:25.699Z,11.60
2022-09-20T02:55:11.938Z,11.85
2022-09-20T02:55:39.039Z,12.00
2022-09-20T02:56:17.774Z,12.20
2022-09-20T02:57:05.522Z,12.43
2022-09-20T02:57:42.709Z,10.45
2022-09-20T02:58:07.266Z,11.35
2022-09-20T02:59:10.104Z,12.85
2022-09-20T02:59:45.628Z,12.88
2022-09-20T03:00:18.271Z,12.05
2022-09-20T03:00:53.873Z,12.02
2022-09-20T03:01:25.796Z,12.52
2022-09-20T03:01:59.952Z,14.48
2022-09-20T03:02:28.016Z,14.13
2022-09-20T03:03:16.094Z,12.82
2022-09-20T03:04:19.322Z,14.02
2022-09-20T03:04:59.041Z,13.85
2022-09-20T03:05:26.826Z,13.40
2022-09-20T03:05:58.989Z,13.40
2022-09-20T03:06:29.133Z,13.50
2022-09-20T03:07:41.546Z,14.05
2022-09-20T03:08:06.013Z,13.68
2022-09-20T03:08:27.976Z,16.40
2022-09-20T03:09:18.659Z,15.35
2022-09-20T03:10:07.023Z,13.55
2022-09-20T03:10:43.803Z,13.60
2022-09-20T03:11:11.662Z,14.77
2022-09-20T03:11:38.459Z,15.57
2022-09-20T03:12:24.820Z,14.65
2022-09-20T03:13:15.788Z,15.57
2022-09-20T03:14:01.978Z,15.82
2022-09-20T03:14:36.524Z,16.23
2022-09-20T03:15:11.056Z,15.25
2022-09-20T03:16:03.548Z,14.30
2022-09-20T03:16:31.044Z,17.38
2022-09-20T03:17:06.505Z,15.38
2022-09-20T03:17:42.573Z,14.90
2022-09-20T03:18:20.207Z,15.10
2022-09-20T03:19:03.143Z,15.73
2022-09-20T03:19:55.237Z,15.68
2022-09-20T03:20:50.989Z,20.25
2022-09-20T03:21:27.928Z,15.55
2022-09-20T03:22:22.151Z,17.17
2022-09-20T03:23:28.447Z,17.65
2022-09-20T03:24:20.585Z,15.32
2022-09-20T03:25:21.523Z,18.15
2022-09-20T03:26:12.210Z,16.60
2022-09-20T03:26:57.050Z,18.67
2022-09-20T03:27:46.774Z,18.27
2022-09-20T03:28:29.950Z,17.75
2022-09-20T03:29:21.971Z,18.08
2022-09-20T03:30:03.231Z,19.00
2022-09-20T03:30:46.664Z,19.15
2022-09-20T03:31:11.965Z,20.40
2022-09-20T03:31:36.881Z,18.17
2022-09-20T03:32:28.479Z,18.13
2022-09-20T03:32:58.641Z,18.83
2022-09-20T03:33:36.727Z,17.13
2022-09-20T03:34:24.640Z,19.00
2022-09-20T03:34:55.410Z,19.83
2022-09-20T03:35:48.537Z,20.73
2022-09-20T03:36:34.856Z,17.85
2022-09-20T03:37:28.153Z,20.75
2022-09-20T03:37:58.240Z,19.42
2022-09-20T03:38:51.136Z,20.67
2022-09-20T03:39:12.830Z,20.60
2022-09-20T03:39:57.961Z,20.25
2022-09-20T03:40:26.354Z,21.95
2022-09-20T03:41:31.045Z,19.33
2022-09-20T03:42:14.840Z,20.67
2022-09-20T03:42:46.888Z,18.52
2022-09-20T03:43:46.195Z,21.35
2022-09-20T03:44:43.286Z,22.20
2022-09-20T03:45:38.467Z,20.50
2022-09-20T03:46:30.014Z,20.00
2022-09-20T03:47:10.124Z,21.95
2022-09-20T03:47:51.178Z,22.27
2022-09-20T03:48:50.907Z,20.23
2022-09-20T03:49:32.452Z,20.40
2022-09-20T03:50:05.610Z,20.23
2022-09-20T03:50:52.426Z,21.60
2022-09-20T03:51:38.120Z,20.60
2022-09-20T03:52:27.128Z,22.40
2022-09-20T03:53:00.962Z,21.30
2022-09-20T03:54:06.410Z,23.23
2022-09-20T03:55:02.670Z,22.27
2022-09-20T03:56:03.830Z,22.55
2022-09-20T03:56:44.218Z,22.40
2022-09-20T03:57:16.077Z,23.75
2022-09-20T03:57:59.012Z,23.15
2022-09-20T03:58:32.699Z,22.70
2022-09-20T03:59:09.242Z,22.20
2022-09-20T03:59:39.841Z,23.25
2022-09-20T04:00:07.337Z,24.15
2022-09-20T04:00:35.501Z,23.23
2022-09-20T04:01:14.905Z,23.85
2022-09-20T04:01:58.172Z,24.45
2022-09-20T04:02:40.598Z,26.77
2022-09-20T04:03:38.774Z,23.77
2022-09-20T04:04:25.199Z,25.55
2022-09-20T04:04:53.773Z,26.38
2022-09-20T04:05:30.537Z,25.52
2022-09-20T04:06:15.150Z,24.20
2022-09-20T04:06:49.666Z,26.00
2022-09-20T04:07:43.556Z,24.90
2022-09-20T04:08:40.557Z,26.50
2022-09-20T04:09:20.737Z,27.08
2022-09-20T04:09:59.297Z,25.85
2022-09-20T04:10:36.292Z,28.25
2022-09-20T04:11:16.807Z,27.13
2022-09-20T04:11:49.780Z,29.63
2022-09-20T04:12:35.609Z,27.83
2022-09-20T04:13:36.545Z,27.70
2022-09-20T04:14:25.325Z,29.63
2022-09-20T04:15:23.630Z,25.92
2022-09-20T04:16:16.921Z,30.77
2022-09-20T04:16:46.773Z,27.25
2022-09-20T04:17:29.834Z,28.73
2022-09-20T04:17:57.023Z,28.77
2022-09-20T04:18:33.979Z,30.00
2022-09-20T04:19:11.828Z,27.92
2022-09-20T04:19:37.900Z,28.40
2022-09-20T04:20:29.175Z,28.30
2022-09-20T04:21:00.713Z,26.05
2022-09-20T04:21:33.821Z,29.02
2022-09-20T04:21:59.295Z,25.85
2022-09-20T04:22:22.966Z,26.20
2022-09-20T04:22:47.039Z,27.27
2022-09-20T04:23:27.550Z,25.60
2022-09-20T04:24:17.561Z,30.23
2022-09-20T04:24:48.876Z,27.83
2022-09-20T04:25:18.136Z,26.70
2022-09-20T04:25:46.628Z,27.33
2022-09-20T04:26:08.913Z,27.60
2022-09-20T04:26:34.987Z,25.50
2022-09-20T04:27:34.736Z,27.85
2022-09-20T04:28:09.549Z,28.90
2022-09-20T04:28:43.256Z,29.02
2022-09-20T04:29:35.905Z,29.15
2022-09-20T04:30:11.828Z,26.70
2022-09-20T04:30:43.802Z,25.77
2022-09-20T04:31:32.947Z,26.33
2022-09-20T04:32:26.785Z,27.15
2022-09-20T04:32:54.862Z,31.08
2022-09-20T04:33:28.476Z,28.02
2022-09-20T04:33:54.528Z,27.42
2022-09-20T04:34:48.210Z,27.17
2022-09-20T04:35:51.415Z,28.55
2022-09-20T04:36:38.154Z,30.23
2022-09-20T04:37:03.904Z,29.42
2022-09-20T04:37:38.533Z,24.98
2022-09-20T04:38:06.141Z,25.92
2022-09-20T04:38:29.238Z,29.33
2022-09-20T04:39:11.205Z,28.75
2022-09-20T04:39:56.811Z,28.67
2022-09-20T04:40:45.554Z,28.85
2022-09-20T04:41:16.804Z,27.65
2022-09-20T04:42:15.816Z,29.83
2022-09-20T04:43:12.275Z,30.98
2022-09-20T04:43:56.866Z,31.50
2022-09-20T04:44:52.732Z,30.67
2022-09-20T04:45:22.908Z,32.00
2022-09-20T04:46:36.379Z,31.23
2022-09-20T04:47:01.551Z,30.52
2022-09-20T04:47:35.668Z,32.00
2022-09-20T04:48:29.275Z,30.02
2022-09-20T04:49:08.490Z,30.15
2022-09-20T04:49:42.552Z,30.65
2022-09-20T05:01:00.773Z,28.98
2022-09-20T05:02:07.130Z,27.02
2022-09-20T05:03:06.420Z,30.33
2022-09-20T05:07:48.132Z,29.45
2022-09-20T05:17:40.174Z,32.47
2022-09-20T05:18:16.999Z,30.73
2022-09-20T05:37:28.828Z,20.98
2022-09-20T05:38:08.345Z,23.63
2022-09-20T05:38:58.073Z,22.25
2022-09-20T05:39:32.294Z,21.77
2022-09-20T05:40:05.457Z,25.05
2022-09-20T05:41:01.372Z,23.67
2022-09-20T05:41:42.889Z,23.55
2022-09-20T05:42:33.161Z,20.88
2022-09-20T05:43:13.481Z,21.77
2022-09-20T05:43:53.566Z,21.20
2022-09-20T05:44:29.784Z,20.70
2022-09-20T05:45:14.786Z,23.00
2022-09-20T05:45:45.217Z,22.45
2022-09-20T05:46:18.773Z,21.88
2022-09-20T05:47:12.753Z,21.38
2022-09-20T05:48:13.293Z,19.83
2022-09-20T05:48:53.295Z,19.02
2022-09-20T05:49:59.860Z,22.52
2022-09-20T05:50:27.097Z,20.27
2022-09-20T05:51:24.938Z,21.90
2022-09-20T05:52:10.866Z,19.63
2022-09-20T05:53:03.748Z,20.42
2022-09-20T05:54:06.908Z,18.33
2022-09-20T05:54:36.222Z,19.58
2022-09-20T05:55:28.986Z,20.73
2022-09-20T05:55:59.812Z,21.58
2022-09-20T05:56:42.736Z,22.92
2022-09-20T05:57:29.220Z,18.33
2022-09-20T05:58:15.679Z,17.42
2022-09-20T05:58:46.596Z,20.23
2022-09-20T05:59:37.265Z,18.15
2022-09-20T06:00:16.344Z,20.27
2022-09-20T06:00:47.038Z,17.85
2022-09-20T06:01:27.309Z,18.98
2022-09-20T06:02:10.438Z,19.73
2022-09-20T06:02:41.811Z,17.52
2022-09-20T06:03:19.143Z,20.00
2022-09-20T06:03:45.932Z,18.27
2022-09-20T06:04:19.650Z,19.30
2022-09-20T06:05:00.260Z,17.05
2022-09-20T06:06:01.343Z,19.35
2022-09-20T06:06:52.357Z,18.65
2022-09-20T06:07:26.247Z,18.67
2022-09-20T06:07:51.488Z,17.40
2022-09-20T06:08:16.304Z,16.85
2022-09-20T06:09:00.112Z,17.17
2022-09-20T06:09:54.078Z,17.83
2022-09-20T06:10:47.701Z,18.05
2022-09-20T06:11:36.403Z,16.98
2022-09-20T06:12:22.689Z,16.02
2022-09-20T06:13:08.958Z,17.88
2022-09-20T06:13:39.865Z,17.45
2022-09-20T06:14:11.482Z,17.52
2022-09-20T06:14:55.262Z,19.42
2022-09-20T06:15:22.033Z,17.23
2022-09-20T06:15:58.295Z,18.15
2022-09-20T06:16:32.886Z,19.90
2022-09-20T06:17:20.920Z,19.60
2022-09-20T06:18:25.626Z,19.23
2022-09-20T06:19:32.817Z,18.23
2022-09-20T06:20:24.530Z,19.75
2022-09-20T06:21:17.244Z,17.55
2022-09-20T06:21:50.495Z,16.60
2022-09-20T06:22:38.940Z,17.13
2022-09-20T06:23:03.776Z,17.98
2022-09-20T06:23:32.525Z,19.63
2022-09-20T06:24:00.532Z,16.77
2022-09-20T06:24:34.042Z,17.23
2022-09-20T06:25:10.985Z,21.15
2022-09-20T06:25:56.234Z,17.20
2022-09-20T06:26:23.693Z,16.83
2022-09-20T06:26:45.426Z,18.75
2022-09-20T06:27:14.175Z,19.55
2022-09-20T06:27:40.107Z,20.25
2022-09-20T06:28:13.679Z,21.98
2022-09-20T06:28:58.584Z,19.05
2022-09-20T06:29:33.318Z,19.80
2022-09-20T06:30:03.671Z,22.23
2022-09-20T06:30:30.421Z,21.92
2022-09-20T06:30:56.812Z,22.08
2022-09-20T06:31:19.066Z,20.65
2022-09-20T06:31:44.176Z,23.75
2022-09-20T06:32:06.733Z,21.17
2022-09-20T06:32:28.905Z,20.83
2022-09-20T06:33:17.109Z,21.25
2022-09-20T06:33:53.312Z,19.33
2022-09-20T06:34:15.948Z,20.10
2022-09-20T06:34:37.727Z,19.55
2022-09-20T06:35:02.972Z,24.02
2022-09-20T06:35:34.935Z,19.45
2022-09-20T06:36:19.814Z,19.25
2022-09-20T06:37:06.681Z,19.33
2022-09-20T06:37:52.746Z,18.70
2022-09-20T06:38:52.334Z,18.02
2022-09-20T06:39:32.635Z,19.35
2022-09-20T06:40:53.705Z,17.65
2022-09-20T06:41:28.576Z,18.17
2022-09-20T06:42:01.631Z,19.75
2022-09-20T06:42:27.036Z,18.85
2022-09-20T06:42:49.180Z,20.83
2022-09-20T06:43:15.295Z,18.42
2022-09-20T06:43:40.618Z,17.25
2022-09-20T06:44:05.413Z,17.05
2022-09-20T06:44:27.565Z,17.42
2022-09-20T06:44:49.963Z,15.43
2022-09-20T06:45:12.062Z,16.58
2022-09-20T06:45:34.136Z,18.63
2022-09-20T06:45:55.902Z,17.30
2022-09-20T06:46:17.893Z,16.95
2022-09-20T06:46:41.791Z,17.63
2022-09-20T06:47:03.664Z,17.33
2022-09-20T06:47:26.940Z,15.02
2022-09-20T06:47:48.709Z,16.35
2022-09-20T06:48:13.184Z,17.30
2022-09-20T06:48:40.140Z,17.60
2022-09-20T06:49:04.751Z,16.63
2022-09-20T06:49:28.471Z,17.02
2022-09-20T06:49:50.387Z,18.52
2022-09-20T06:50:17.057Z,17.38
2022-09-20T06:50:39.828Z,16.90
2022-09-20T06:51:01.889Z,18.88
2022-09-20T06:51:26.583Z,19.10
2022-09-20T06:51:52.641Z,15.98
2022-09-20T06:52:19.657Z,16.80
2022-09-20T06:52:45.050Z,16.95
2022-09-20T06:53:07.415Z,17.15
2022-09-20T06:53:34.118Z,16.85
2022-09-20T06:53:57.937Z,16.80
2022-09-20T06:54:23.819Z,16.52
2022-09-20T06:54:47.861Z,16.40
2022-09-20T06:55:21.063Z,18.88
2022-09-20T06:55:45.237Z,16.45
2022-09-20T06:56:13.742Z,16.00
2022-09-20T06:56:36.847Z,17.25
2022-09-20T06:57:02.779Z,17.83
2022-09-20T06:57:38.004Z,17.92
2022-09-20T06:58:00.633Z,17.55
2022-09-20T06:58:22.897Z,16.92
2022-09-20T06:58:49.200Z,16.95
2022-09-20T06:59:12.994Z,17.08
2022-09-20T06:59:34.800Z,16.33
2022-09-20T06:59:56.557Z,17.30
2022-09-20T07:00:18.363Z,16.92
2022-09-20T07:00:40.627Z,16.67
2022-09-20T07:01:02.876Z,15.88
2022-09-20T07:01:30.180Z,15.93
2022-09-20T07:01:53.183Z,16.80
2022-09-20T07:02:15.301Z,17.33
2022-09-20T07:02:37.684Z,16.80
2022-09-20T07:03:00.997Z,17.33
2022-09-20T07:03:24.556Z,16.17
2022-09-20T07:03:46.562Z,15.15
2022-09-20T07:04:09.917Z,15.27
2022-09-20T07:04:36.033Z,15.93
2022-09-20T07:04:59.361Z,18.17
2022-09-20T07:05:21.978Z,15.40
2022-09-20T07:05:44.089Z,14.73
2022-09-20T07:06:07.047Z,16.65
2022-09-20T07:06:29.511Z,18.92
2022-09-20T07:06:54.721Z,16.63
2022-09-20T07:07:20.586Z,18.08
2022-09-20T07:07:44.081Z,17.08
2022-09-20T07:08:06.486Z,16.30
2022-09-20T07:08:28.837Z,17.65
2022-09-20T07:08:51.140Z,15.90
2022-09-20T07:09:17.914Z,15.30
2022-09-20T07:09:40.199Z,15.70
2022-09-20T07:10:03.986Z,13.88
2022-09-20T07:10:30.194Z,14.38
2022-09-20T07:10:52.794Z,14.95
2022-09-20T07:11:17.851Z,14.15
2022-09-20T07:11:40.925Z,17.15
2022-09-20T07:12:03.424Z,17.40
2022-09-20T07:12:25.787Z,17.05
2022-09-20T07:12:48.635Z,16.70
2022-09-20T07:13:14.017Z,15.15
2022-09-20T07:13:41.021Z,16.88
2022-09-20T07:14:03.529Z,15.23
2022-09-20T07:14:26.966Z,14.50
2022-09-20T07:14:50.605Z,12.90
2022-09-20T07:15:12.597Z,13.30
2022-09-20T07:15:37.532Z,15.73
2022-09-20T07:16:08.651Z,14.27
2022-09-20T07:16:32.148Z,14.88
2022-09-20T07:16:55.009Z,14.15
2022-09-20T07:17:16.835Z,14.02
2022-09-20T07:17:39.092Z,14.57
2022-09-20T07:18:01.117Z,15.48
2022-09-20T07:18:23.404Z,14.85
2022-09-20T07:18:45.632Z,16.00
2022-09-20T07:19:08.485Z,15.20
2022-09-20T07:19:30.505Z,17.52
2022-09-20T07:19:54.075Z,15.85
2022-09-20T07:20:20.731Z,15.25
2022-09-20T07:20:44.985Z,15.50
2022-09-20T07:21:07.478Z,15.90
2022-09-20T07:21:29.657Z,16.88
2022-09-20T07:21:52.029Z,15.02
2022-09-20T07:22:15.343Z,14.05
2022-09-20T07:22:37.585Z,17.75
2022-09-20T07:22:59.485Z,17.42
2022-09-20T07:23:21.666Z,15.93
2022-09-20T07:23:45.897Z,15.57
2022-09-20T07:24:07.762Z,16.23
2022-09-20T07:24:39.540Z,14.30
2022-09-20T07:25:03.127Z,14.10
2022-09-20T07:25:25.786Z,14.65
2022-09-20T07:25:48.079Z,13.85
2022-09-20T07:26:21.852Z,14.40
2022-09-20T07:26:58.106Z,13.57
2022-09-20T07:27:21.742Z,14.50
2022-09-20T07:27:46.585Z,13.45
2022-09-20T07:28:09.814Z,14.50
2022-09-20T07:28:37.819Z,15.43
2022-09-20T07:29:00.741Z,14.50
2022-09-20T07:29:23.054Z,14.02
2022-09-20T07:29:46.333Z,12.77
2022-09-20T07:30:09.458Z,13.00
2022-09-20T07:30:31.727Z,13.30
2022-09-20T07:30:56.794Z,12.05
2022-09-20T07:31:30.880Z,12.75
2022-09-20T07:31:53.117Z,12.13
2022-09-20T07:32:15.681Z,12.85
2022-09-20T07:32:39.071Z,13.30
2022-09-20T07:33:01.623Z,13.20
2022-09-20T07:33:25.281Z,11.88
2022-09-20T07:33:47.633Z,10.98
2022-09-20T07:34:13.096Z,11.52
2022-09-20T07:34:35.608Z,11.55
2022-09-20T07:34:58.136Z,12.60
2022-09-20T07:35:20.649Z,12.13
2022-09-20T07:35:43.618Z,12.13
2022-09-20T07:36:06.452Z,12.15
2022-09-20T07:36:30.070Z,12.65
2022-09-20T07:36:53.303Z,11.00
2022-09-20T07:37:29.038Z,11.65
2022-09-20T07:38:17.204Z,11.48
2022-09-20T07:38:49.840Z,12.87
2022-09-20T07:39:15.921Z,11.77
2022-09-20T07:39:38.259Z,11.55
2022-09-20T07:40:00.153Z,12.27
2022-09-20T07:40:23.878Z,12.07
2022-09-20T07:40:58.005Z,14.88
2022-09-20T07:41:20.705Z,10.77
2022-09-20T07:41:48.261Z,11.82
2022-09-20T07:42:12.297Z,12.43
2022-09-20T07:42:39.797Z,12.20
2022-09-20T07:43:02.196Z,11.95
2022-09-20T07:43:25.747Z,12.40
2022-09-20T07:43:50.933Z,11.80
2022-09-20T07:44:22.232Z,12.10
2022-09-20T07:44:51.317Z,12.13
2022-09-20T07:45:13.713Z,12.82
2022-09-20T07:45:43.267Z,11.80
2022-09-20T07:46:10.156Z,12.75
2022-09-20T07:46:44.562Z,12.40
2022-09-20T07:47:07.449Z,13.43
2022-09-20T07:47:46.989Z,11.77
2022-09-20T07:48:10.941Z,11.90
2022-09-20T07:48:53.545Z,11.82
2022-09-20T07:49:42.782Z,12.13
2022-09-20T07:50:06.704Z,12.43
2022-09-20T07:50:40.966Z,14.40
2022-09-20T07:51:08.723Z,12.38
2022-09-20T07:51:32.064Z,11.20
2022-09-20T07:51:54.859Z,11.82
2022-09-20T07:52:20.030Z,12.07
2022-09-20T07:52:41.961Z,12.55
2022-09-20T07:53:05.022Z,12.35